sensor_id;sensor_type;location;lat;lon;timestamp;P1;durP1;ratioP1;P2;durP2;ratioP2
23142;SDS011;11740;51.168;4.112;2023-08-06T00:01:48;3.65;;;1.80;;
23142;SDS011;11740;51.168;4.112;2023-08-06T00:04:15;1.70;;;1.15;;
23142;SDS011;11740;51.168;4.112;2023-08-06T00:06:42;3.08;;;1.38;;
23142;SDS011;11740;51.168;4.112;2023-08-06T00:09:09;2.15;;;1.63;;
23142;SDS011;11740;51.168;4.112;2023-08-06T00:11:36;1.67;;;1.45;;
23142;SDS011;11740;51.168;4.112;2023-08-06T00:14:03;2.92;;;1.58;;
23142;SDS011;11740;51.168;4.112;2023-08-06T00:16:30;3.92;;;1.60;;
23142;SDS011;11740;51.168;4.112;2023-08-06T00:18:57;2.90;;;1.58;;
23142;SDS011;11740;51.168;4.112;2023-08-06T00:21:24;3.60;;;1.67;;
23142;SDS011;11740;51.168;4.112;2023-08-06T00:23:51;1.90;;;1.67;;
23142;SDS011;11740;51.168;4.112;2023-08-06T00:26:18;2.03;;;1.83;;
23142;SDS011;11740;51.168;4.112;2023-08-06T00:28:46;2.25;;;1.80;;
23142;SDS011;11740;51.168;4.112;2023-08-06T00:31:14;3.50;;;2.03;;
23142;SDS011;11740;51.168;4.112;2023-08-06T00:33:41;3.35;;;2.15;;
23142;SDS011;11740;51.168;4.112;2023-08-06T00:36:08;2.13;;;1.77;;
23142;SDS011;11740;51.168;4.112;2023-08-06T00:38:34;4.13;;;2.08;;
23142;SDS011;11740;51.168;4.112;2023-08-06T00:41:01;3.42;;;2.03;;
23142;SDS011;11740;51.168;4.112;2023-08-06T00:43:28;4.65;;;2.17;;
23142;SDS011;11740;51.168;4.112;2023-08-06T00:45:56;2.70;;;2.10;;
23142;SDS011;11740;51.168;4.112;2023-08-06T00:48:23;2.92;;;2.08;;
23142;SDS011;11740;51.168;4.112;2023-08-06T00:50:50;2.70;;;1.95;;
23142;SDS011;11740;51.168;4.112;2023-08-06T00:53:17;2.30;;;1.88;;
23142;SDS011;11740;51.168;4.112;2023-08-06T00:55:44;4.63;;;2.08;;
23142;SDS011;11740;51.168;4.112;2023-08-06T00:58:12;3.78;;;2.05;;
23142;SDS011;11740;51.168;4.112;2023-08-06T01:00:40;2.72;;;1.90;;
23142;SDS011;11740;51.168;4.112;2023-08-06T01:03:07;2.70;;;2.20;;
23142;SDS011;11740;51.168;4.112;2023-08-06T01:05:34;3.10;;;1.95;;
23142;SDS011;11740;51.168;4.112;2023-08-06T01:13:48;3.33;;;1.67;;
23142;SDS011;11740;51.168;4.112;2023-08-06T01:19:19;5.60;;;1.92;;
23142;SDS011;11740;51.168;4.112;2023-08-06T01:21:46;3.85;;;2.13;;
23142;SDS011;11740;51.168;4.112;2023-08-06T01:24:13;2.75;;;2.20;;
23142;SDS011;11740;51.168;4.112;2023-08-06T01:29:44;2.92;;;2.00;;
23142;SDS011;11740;51.168;4.112;2023-08-06T01:32:15;2.40;;;2.13;;
23142;SDS011;11740;51.168;4.112;2023-08-06T01:34:43;5.90;;;2.70;;
23142;SDS011;11740;51.168;4.112;2023-08-06T01:37:13;2.80;;;2.47;;
23142;SDS011;11740;51.168;4.112;2023-08-06T01:39:43;3.13;;;2.40;;
23142;SDS011;11740;51.168;4.112;2023-08-06T01:42:10;4.22;;;2.50;;
23142;SDS011;11740;51.168;4.112;2023-08-06T01:44:37;3.33;;;2.47;;
23142;SDS011;11740;51.168;4.112;2023-08-06T01:47:04;3.50;;;2.17;;
23142;SDS011;11740;51.168;4.112;2023-08-06T01:49:32;3.75;;;2.50;;
23142;SDS011;11740;51.168;4.112;2023-08-06T01:51:59;2.85;;;2.30;;
23142;SDS011;11740;51.168;4.112;2023-08-06T01:54:27;2.92;;;2.50;;
23142;SDS011;11740;51.168;4.112;2023-08-06T01:56:54;2.40;;;2.00;;
23142;SDS011;11740;51.168;4.112;2023-08-06T01:59:21;2.45;;;2.05;;
23142;SDS011;11740;51.168;4.112;2023-08-06T02:01:48;5.25;;;2.90;;
23142;SDS011;11740;51.168;4.112;2023-08-06T02:04:16;3.00;;;2.70;;
23142;SDS011;11740;51.168;4.112;2023-08-06T02:06:42;3.10;;;2.80;;
23142;SDS011;11740;51.168;4.112;2023-08-06T02:09:09;4.13;;;2.45;;
23142;SDS011;11740;51.168;4.112;2023-08-06T02:11:36;6.90;;;2.85;;
23142;SDS011;11740;51.168;4.112;2023-08-06T02:14:03;3.33;;;2.70;;
23142;SDS011;11740;51.168;4.112;2023-08-06T02:16:30;4.05;;;2.40;;
23142;SDS011;11740;51.168;4.112;2023-08-06T02:18:57;3.90;;;2.50;;
23142;SDS011;11740;51.168;4.112;2023-08-06T02:21:24;4.38;;;2.50;;
23142;SDS011;11740;51.168;4.112;2023-08-06T02:23:51;3.95;;;2.70;;
23142;SDS011;11740;51.168;4.112;2023-08-06T02:26:18;3.47;;;2.60;;
23142;SDS011;11740;51.168;4.112;2023-08-06T02:28:45;3.47;;;2.53;;
23142;SDS011;11740;51.168;4.112;2023-08-06T02:31:11;4.72;;;2.70;;
23142;SDS011;11740;51.168;4.112;2023-08-06T02:33:38;5.25;;;3.05;;
23142;SDS011;11740;51.168;4.112;2023-08-06T02:36:05;4.05;;;3.13;;
23142;SDS011;11740;51.168;4.112;2023-08-06T02:38:32;5.03;;;2.88;;
23142;SDS011;11740;51.168;4.112;2023-08-06T02:41:02;3.25;;;2.40;;
23142;SDS011;11740;51.168;4.112;2023-08-06T02:43:30;3.00;;;2.03;;
23142;SDS011;11740;51.168;4.112;2023-08-06T02:45:58;2.40;;;2.20;;
23142;SDS011;11740;51.168;4.112;2023-08-06T02:48:28;3.30;;;2.28;;
23142;SDS011;11740;51.168;4.112;2023-08-06T02:50:58;2.53;;;2.33;;
23142;SDS011;11740;51.168;4.112;2023-08-06T02:53:26;2.70;;;2.50;;
23142;SDS011;11740;51.168;4.112;2023-08-06T02:55:53;3.15;;;2.40;;
23142;SDS011;11740;51.168;4.112;2023-08-06T02:58:21;4.88;;;2.35;;
23142;SDS011;11740;51.168;4.112;2023-08-06T03:00:58;2.47;;;2.28;;
23142;SDS011;11740;51.168;4.112;2023-08-06T03:03:31;2.20;;;2.00;;
23142;SDS011;11740;51.168;4.112;2023-08-06T03:05:58;2.50;;;2.30;;
23142;SDS011;11740;51.168;4.112;2023-08-06T03:08:25;2.67;;;2.42;;
23142;SDS011;11740;51.168;4.112;2023-08-06T03:10:52;2.72;;;2.50;;
23142;SDS011;11740;51.168;4.112;2023-08-06T03:13:20;2.70;;;2.50;;
23142;SDS011;11740;51.168;4.112;2023-08-06T03:15:53;2.70;;;2.50;;
23142;SDS011;11740;51.168;4.112;2023-08-06T03:18:25;2.40;;;2.20;;
23142;SDS011;11740;51.168;4.112;2023-08-06T03:20:52;2.40;;;1.63;;
23142;SDS011;11740;51.168;4.112;2023-08-06T03:23:20;0.95;;;0.93;;
23142;SDS011;11740;51.168;4.112;2023-08-06T03:25:47;1.65;;;1.00;;
23142;SDS011;11740;51.168;4.112;2023-08-06T03:28:14;1.08;;;0.90;;
23142;SDS011;11740;51.168;4.112;2023-08-06T03:30:41;5.25;;;0.90;;
23142;SDS011;11740;51.168;4.112;2023-08-06T03:33:08;1.60;;;0.80;;
23142;SDS011;11740;51.168;4.112;2023-08-06T03:35:35;2.70;;;1.05;;
23142;SDS011;11740;51.168;4.112;2023-08-06T03:38:02;1.60;;;0.80;;
23142;SDS011;11740;51.168;4.112;2023-08-06T03:40:29;0.90;;;0.60;;
23142;SDS011;11740;51.168;4.112;2023-08-06T03:42:56;2.22;;;0.65;;
23142;SDS011;11740;51.168;4.112;2023-08-06T03:45:23;2.03;;;0.90;;
23142;SDS011;11740;51.168;4.112;2023-08-06T03:47:50;3.10;;;1.10;;
23142;SDS011;11740;51.168;4.112;2023-08-06T03:50:17;4.63;;;1.67;;
23142;SDS011;11740;51.168;4.112;2023-08-06T03:52:44;5.28;;;1.85;;
23142;SDS011;11740;51.168;4.112;2023-08-06T03:55:10;4.50;;;1.75;;
23142;SDS011;11740;51.168;4.112;2023-08-06T03:57:37;6.25;;;2.47;;
23142;SDS011;11740;51.168;4.112;2023-08-06T04:00:04;6.60;;;2.10;;
23142;SDS011;11740;51.168;4.112;2023-08-06T04:02:32;8.25;;;2.20;;
23142;SDS011;11740;51.168;4.112;2023-08-06T04:05:00;7.15;;;2.40;;
23142;SDS011;11740;51.168;4.112;2023-08-06T04:07:27;5.47;;;2.53;;
23142;SDS011;11740;51.168;4.112;2023-08-06T04:09:57;6.63;;;2.45;;
23142;SDS011;11740;51.168;4.112;2023-08-06T04:12:26;4.90;;;2.17;;
23142;SDS011;11740;51.168;4.112;2023-08-06T04:14:53;6.05;;;2.20;;
23142;SDS011;11740;51.168;4.112;2023-08-06T04:17:21;4.82;;;2.03;;
23142;SDS011;11740;51.168;4.112;2023-08-06T04:19:52;8.68;;;2.17;;
23142;SDS011;11740;51.168;4.112;2023-08-06T04:22:21;5.68;;;2.58;;
23142;SDS011;11740;51.168;4.112;2023-08-06T04:24:48;6.13;;;2.58;;
23142;SDS011;11740;51.168;4.112;2023-08-06T04:27:15;6.00;;;2.55;;
23142;SDS011;11740;51.168;4.112;2023-08-06T04:29:45;7.15;;;2.60;;
23142;SDS011;11740;51.168;4.112;2023-08-06T04:32:12;8.35;;;3.20;;
23142;SDS011;11740;51.168;4.112;2023-08-06T04:34:39;9.35;;;2.70;;
23142;SDS011;11740;51.168;4.112;2023-08-06T04:37:06;5.70;;;2.72;;
23142;SDS011;11740;51.168;4.112;2023-08-06T04:39:33;6.57;;;2.88;;
23142;SDS011;11740;51.168;4.112;2023-08-06T04:42:00;5.88;;;2.67;;
23142;SDS011;11740;51.168;4.112;2023-08-06T04:44:27;8.65;;;3.20;;
23142;SDS011;11740;51.168;4.112;2023-08-06T04:46:54;9.32;;;2.90;;
23142;SDS011;11740;51.168;4.112;2023-08-06T04:49:21;8.55;;;3.30;;
23142;SDS011;11740;51.168;4.112;2023-08-06T04:51:48;10.02;;;3.25;;
23142;SDS011;11740;51.168;4.112;2023-08-06T04:54:15;8.70;;;3.40;;
23142;SDS011;11740;51.168;4.112;2023-08-06T04:56:42;9.43;;;3.42;;
23142;SDS011;11740;51.168;4.112;2023-08-06T04:59:09;8.32;;;2.90;;
23142;SDS011;11740;51.168;4.112;2023-08-06T05:01:36;6.72;;;2.53;;
23142;SDS011;11740;51.168;4.112;2023-08-06T05:04:03;5.97;;;2.85;;
23142;SDS011;11740;51.168;4.112;2023-08-06T05:06:30;6.45;;;2.60;;
23142;SDS011;11740;51.168;4.112;2023-08-06T05:08:57;8.80;;;2.85;;
23142;SDS011;11740;51.168;4.112;2023-08-06T05:11:24;4.80;;;2.60;;
23142;SDS011;11740;51.168;4.112;2023-08-06T05:13:51;9.00;;;2.55;;
23142;SDS011;11740;51.168;4.112;2023-08-06T05:16:18;5.30;;;2.67;;
23142;SDS011;11740;51.168;4.112;2023-08-06T05:18:45;7.32;;;2.90;;
23142;SDS011;11740;51.168;4.112;2023-08-06T05:21:12;6.15;;;2.53;;
23142;SDS011;11740;51.168;4.112;2023-08-06T05:23:39;5.60;;;2.25;;
23142;SDS011;11740;51.168;4.112;2023-08-06T05:26:06;10.75;;;2.50;;
23142;SDS011;11740;51.168;4.112;2023-08-06T05:28:33;7.57;;;2.30;;
23142;SDS011;11740;51.168;4.112;2023-08-06T05:31:04;8.57;;;2.47;;
23142;SDS011;11740;51.168;4.112;2023-08-06T05:33:31;9.13;;;2.47;;
23142;SDS011;11740;51.168;4.112;2023-08-06T05:35:58;7.28;;;2.63;;
23142;SDS011;11740;51.168;4.112;2023-08-06T05:38:25;7.80;;;2.88;;
23142;SDS011;11740;51.168;4.112;2023-08-06T05:40:52;4.85;;;2.45;;
23142;SDS011;11740;51.168;4.112;2023-08-06T05:43:19;6.90;;;2.55;;
23142;SDS011;11740;51.168;4.112;2023-08-06T05:45:48;7.18;;;2.55;;
23142;SDS011;11740;51.168;4.112;2023-08-06T05:48:16;7.50;;;2.92;;
23142;SDS011;11740;51.168;4.112;2023-08-06T05:50:43;7.15;;;2.80;;
23142;SDS011;11740;51.168;4.112;2023-08-06T05:53:11;5.97;;;2.70;;
23142;SDS011;11740;51.168;4.112;2023-08-06T05:55:38;4.53;;;2.05;;
23142;SDS011;11740;51.168;4.112;2023-08-06T05:58:05;6.90;;;2.50;;
23142;SDS011;11740;51.168;4.112;2023-08-06T06:00:32;10.13;;;2.85;;
23142;SDS011;11740;51.168;4.112;2023-08-06T06:02:59;6.90;;;3.00;;
23142;SDS011;11740;51.168;4.112;2023-08-06T06:05:26;5.57;;;2.60;;
23142;SDS011;11740;51.168;4.112;2023-08-06T06:07:53;8.23;;;3.45;;
23142;SDS011;11740;51.168;4.112;2023-08-06T06:10:20;7.45;;;2.80;;
23142;SDS011;11740;51.168;4.112;2023-08-06T06:12:47;9.65;;;2.97;;
23142;SDS011;11740;51.168;4.112;2023-08-06T06:15:13;4.40;;;2.58;;
23142;SDS011;11740;51.168;4.112;2023-08-06T06:17:41;8.20;;;3.22;;
23142;SDS011;11740;51.168;4.112;2023-08-06T06:20:08;8.20;;;3.13;;
23142;SDS011;11740;51.168;4.112;2023-08-06T06:22:35;10.48;;;3.47;;
23142;SDS011;11740;51.168;4.112;2023-08-06T06:25:02;5.68;;;2.80;;
23142;SDS011;11740;51.168;4.112;2023-08-06T06:27:29;9.05;;;2.78;;
23142;SDS011;11740;51.168;4.112;2023-08-06T06:29:56;7.78;;;3.05;;
23142;SDS011;11740;51.168;4.112;2023-08-06T06:32:23;8.82;;;2.90;;
23142;SDS011;11740;51.168;4.112;2023-08-06T06:34:50;7.00;;;2.72;;
23142;SDS011;11740;51.168;4.112;2023-08-06T06:37:17;6.93;;;3.17;;
23142;SDS011;11740;51.168;4.112;2023-08-06T06:39:44;8.65;;;2.50;;
23142;SDS011;11740;51.168;4.112;2023-08-06T06:42:11;7.55;;;2.00;;
23142;SDS011;11740;51.168;4.112;2023-08-06T06:44:38;7.63;;;1.80;;
23142;SDS011;11740;51.168;4.112;2023-08-06T06:47:05;6.22;;;1.70;;
23142;SDS011;11740;51.168;4.112;2023-08-06T06:49:31;6.45;;;1.38;;
23142;SDS011;11740;51.168;4.112;2023-08-06T06:51:58;6.78;;;1.50;;
23142;SDS011;11740;51.168;4.112;2023-08-06T06:54:25;7.82;;;1.38;;
23142;SDS011;11740;51.168;4.112;2023-08-06T06:56:52;11.48;;;1.73;;
23142;SDS011;11740;51.168;4.112;2023-08-06T06:59:19;6.13;;;1.65;;
23142;SDS011;11740;51.168;4.112;2023-08-06T07:01:46;8.85;;;1.52;;
23142;SDS011;11740;51.168;4.112;2023-08-06T07:04:13;9.48;;;1.98;;
23142;SDS011;11740;51.168;4.112;2023-08-06T07:06:40;12.77;;;2.50;;
23142;SDS011;11740;51.168;4.112;2023-08-06T07:09:07;10.68;;;2.10;;
23142;SDS011;11740;51.168;4.112;2023-08-06T07:11:34;11.45;;;2.20;;
23142;SDS011;11740;51.168;4.112;2023-08-06T07:14:01;10.02;;;2.30;;
23142;SDS011;11740;51.168;4.112;2023-08-06T07:16:28;14.38;;;2.10;;
23142;SDS011;11740;51.168;4.112;2023-08-06T07:18:55;7.65;;;1.80;;
23142;SDS011;11740;51.168;4.112;2023-08-06T07:21:22;7.57;;;2.00;;
23142;SDS011;11740;51.168;4.112;2023-08-06T07:23:49;8.38;;;1.70;;
23142;SDS011;11740;51.168;4.112;2023-08-06T07:26:17;9.73;;;1.90;;
23142;SDS011;11740;51.168;4.112;2023-08-06T07:28:44;10.85;;;1.42;;
23142;SDS011;11740;51.168;4.112;2023-08-06T07:31:11;6.90;;;1.33;;
23142;SDS011;11740;51.168;4.112;2023-08-06T07:33:38;6.07;;;1.55;;
23142;SDS011;11740;51.168;4.112;2023-08-06T07:36:11;12.10;;;1.83;;
23142;SDS011;11740;51.168;4.112;2023-08-06T07:38:40;7.47;;;1.50;;
23142;SDS011;11740;51.168;4.112;2023-08-06T07:41:08;8.70;;;1.50;;
23142;SDS011;11740;51.168;4.112;2023-08-06T07:43:35;7.15;;;1.55;;
23142;SDS011;11740;51.168;4.112;2023-08-06T07:46:02;5.82;;;1.40;;
23142;SDS011;11740;51.168;4.112;2023-08-06T07:48:29;4.72;;;1.30;;
23142;SDS011;11740;51.168;4.112;2023-08-06T07:50:56;8.70;;;1.50;;
23142;SDS011;11740;51.168;4.112;2023-08-06T07:53:24;8.40;;;1.85;;
23142;SDS011;11740;51.168;4.112;2023-08-06T07:55:55;5.60;;;1.20;;
23142;SDS011;11740;51.168;4.112;2023-08-06T07:58:23;6.97;;;1.30;;
23142;SDS011;11740;51.168;4.112;2023-08-06T08:00:51;5.00;;;1.50;;
23142;SDS011;11740;51.168;4.112;2023-08-06T08:03:18;8.60;;;1.85;;
23142;SDS011;11740;51.168;4.112;2023-08-06T08:05:46;9.88;;;2.08;;
23142;SDS011;11740;51.168;4.112;2023-08-06T08:08:13;10.05;;;1.80;;
23142;SDS011;11740;51.168;4.112;2023-08-06T08:10:42;6.43;;;1.77;;
23142;SDS011;11740;51.168;4.112;2023-08-06T08:13:09;8.35;;;1.60;;
23142;SDS011;11740;51.168;4.112;2023-08-06T08:15:36;8.38;;;1.77;;
23142;SDS011;11740;51.168;4.112;2023-08-06T08:18:03;13.32;;;2.45;;
23142;SDS011;11740;51.168;4.112;2023-08-06T08:20:30;8.00;;;1.80;;
23142;SDS011;11740;51.168;4.112;2023-08-06T08:23:02;10.90;;;2.25;;
23142;SDS011;11740;51.168;4.112;2023-08-06T08:25:29;11.82;;;2.00;;
23142;SDS011;11740;51.168;4.112;2023-08-06T08:27:58;11.52;;;2.40;;
23142;SDS011;11740;51.168;4.112;2023-08-06T08:30:25;11.90;;;2.63;;
23142;SDS011;11740;51.168;4.112;2023-08-06T08:32:53;10.45;;;2.10;;
23142;SDS011;11740;51.168;4.112;2023-08-06T08:35:20;9.98;;;2.22;;
23142;SDS011;11740;51.168;4.112;2023-08-06T08:37:47;10.15;;;2.30;;
23142;SDS011;11740;51.168;4.112;2023-08-06T08:40:14;8.38;;;1.73;;
23142;SDS011;11740;51.168;4.112;2023-08-06T08:42:42;6.85;;;1.98;;
23142;SDS011;11740;51.168;4.112;2023-08-06T08:45:12;9.48;;;2.13;;
23142;SDS011;11740;51.168;4.112;2023-08-06T08:47:40;8.30;;;2.00;;
23142;SDS011;11740;51.168;4.112;2023-08-06T08:50:13;7.85;;;1.60;;
23142;SDS011;11740;51.168;4.112;2023-08-06T08:52:41;15.18;;;2.25;;
23142;SDS011;11740;51.168;4.112;2023-08-06T08:55:12;11.57;;;2.00;;
23142;SDS011;11740;51.168;4.112;2023-08-06T08:57:41;10.70;;;1.92;;
23142;SDS011;11740;51.168;4.112;2023-08-06T09:00:08;9.82;;;2.25;;
23142;SDS011;11740;51.168;4.112;2023-08-06T09:02:35;8.55;;;1.70;;
23142;SDS011;11740;51.168;4.112;2023-08-06T09:05:04;11.95;;;2.35;;
23142;SDS011;11740;51.168;4.112;2023-08-06T09:07:32;11.63;;;2.22;;
23142;SDS011;11740;51.168;4.112;2023-08-06T09:10:12;12.73;;;2.20;;
23142;SDS011;11740;51.168;4.112;2023-08-06T09:12:44;10.45;;;2.17;;
23142;SDS011;11740;51.168;4.112;2023-08-06T09:15:13;9.45;;;1.85;;
23142;SDS011;11740;51.168;4.112;2023-08-06T09:17:39;12.45;;;2.33;;
23142;SDS011;11740;51.168;4.112;2023-08-06T09:20:10;9.82;;;2.45;;
23142;SDS011;11740;51.168;4.112;2023-08-06T09:22:38;12.85;;;2.28;;
23142;SDS011;11740;51.168;4.112;2023-08-06T09:25:06;11.25;;;2.33;;
23142;SDS011;11740;51.168;4.112;2023-08-06T09:27:37;9.82;;;2.13;;
23142;SDS011;11740;51.168;4.112;2023-08-06T09:30:05;18.38;;;2.78;;
23142;SDS011;11740;51.168;4.112;2023-08-06T09:32:46;12.57;;;1.92;;
23142;SDS011;11740;51.168;4.112;2023-08-06T09:35:15;10.77;;;2.10;;
23142;SDS011;11740;51.168;4.112;2023-08-06T09:37:44;14.18;;;2.42;;
23142;SDS011;11740;51.168;4.112;2023-08-06T09:40:24;12.77;;;2.63;;
23142;SDS011;11740;51.168;4.112;2023-08-06T09:42:58;11.40;;;2.97;;
23142;SDS011;11740;51.168;4.112;2023-08-06T09:45:33;14.48;;;2.70;;
23142;SDS011;11740;51.168;4.112;2023-08-06T09:48:03;11.95;;;2.60;;
23142;SDS011;11740;51.168;4.112;2023-08-06T09:50:32;10.77;;;2.05;;
23142;SDS011;11740;51.168;4.112;2023-08-06T09:53:07;13.68;;;2.20;;
23142;SDS011;11740;51.168;4.112;2023-08-06T09:55:35;10.55;;;2.05;;
23142;SDS011;11740;51.168;4.112;2023-08-06T09:58:02;8.65;;;1.85;;
23142;SDS011;11740;51.168;4.112;2023-08-06T10:00:29;7.07;;;1.50;;
23142;SDS011;11740;51.168;4.112;2023-08-06T10:03:02;9.10;;;3.00;;
23142;SDS011;11740;51.168;4.112;2023-08-06T10:05:29;10.25;;;2.30;;
23142;SDS011;11740;51.168;4.112;2023-08-06T10:07:57;6.80;;;2.08;;
23142;SDS011;11740;51.168;4.112;2023-08-06T10:10:26;10.23;;;2.53;;
23142;SDS011;11740;51.168;4.112;2023-08-06T10:12:55;7.43;;;1.95;;
23142;SDS011;11740;51.168;4.112;2023-08-06T10:15:25;9.90;;;2.40;;
23142;SDS011;11740;51.168;4.112;2023-08-06T10:17:56;8.43;;;1.90;;
23142;SDS011;11740;51.168;4.112;2023-08-06T10:20:24;7.05;;;2.30;;
23142;SDS011;11740;51.168;4.112;2023-08-06T10:23:04;9.60;;;2.00;;
23142;SDS011;11740;51.168;4.112;2023-08-06T10:25:34;7.72;;;1.90;;
23142;SDS011;11740;51.168;4.112;2023-08-06T10:28:09;6.47;;;1.80;;
23142;SDS011;11740;51.168;4.112;2023-08-06T10:30:45;9.77;;;1.83;;
23142;SDS011;11740;51.168;4.112;2023-08-06T10:33:14;6.90;;;2.00;;
23142;SDS011;11740;51.168;4.112;2023-08-06T10:35:46;8.80;;;2.15;;
23142;SDS011;11740;51.168;4.112;2023-08-06T10:38:25;9.73;;;2.00;;
23142;SDS011;11740;51.168;4.112;2023-08-06T10:45:54;11.55;;;2.10;;
23142;SDS011;11740;51.168;4.112;2023-08-06T10:48:31;8.18;;;2.30;;
23142;SDS011;11740;51.168;4.112;2023-08-06T10:51:01;7.07;;;1.73;;
23142;SDS011;11740;51.168;4.112;2023-08-06T10:53:29;8.00;;;1.70;;
23142;SDS011;11740;51.168;4.112;2023-08-06T10:56:00;11.30;;;2.13;;
23142;SDS011;11740;51.168;4.112;2023-08-06T10:58:49;11.35;;;2.30;;
23142;SDS011;11740;51.168;4.112;2023-08-06T11:01:18;6.00;;;1.70;;
23142;SDS011;11740;51.168;4.112;2023-08-06T11:03:45;5.63;;;1.50;;
23142;SDS011;11740;51.168;4.112;2023-08-06T11:06:21;7.38;;;1.65;;
23142;SDS011;11740;51.168;4.112;2023-08-06T11:08:50;5.95;;;1.25;;
23142;SDS011;11740;51.168;4.112;2023-08-06T11:11:22;5.85;;;1.23;;
23142;SDS011;11740;51.168;4.112;2023-08-06T11:13:50;7.28;;;1.15;;
23142;SDS011;11740;51.168;4.112;2023-08-06T11:16:19;9.65;;;1.40;;
23142;SDS011;11740;51.168;4.112;2023-08-06T11:18:50;7.97;;;1.70;;
23142;SDS011;11740;51.168;4.112;2023-08-06T11:21:19;9.90;;;1.70;;
23142;SDS011;11740;51.168;4.112;2023-08-06T11:23:47;6.43;;;1.42;;
23142;SDS011;11740;51.168;4.112;2023-08-06T11:26:18;13.65;;;2.13;;
23142;SDS011;11740;51.168;4.112;2023-08-06T11:28:46;9.90;;;2.13;;
23142;SDS011;11740;51.168;4.112;2023-08-06T11:31:23;8.18;;;2.38;;
23142;SDS011;11740;51.168;4.112;2023-08-06T11:33:51;14.38;;;2.80;;
23142;SDS011;11740;51.168;4.112;2023-08-06T11:36:32;10.68;;;2.10;;
23142;SDS011;11740;51.168;4.112;2023-08-06T11:39:01;13.50;;;2.40;;
23142;SDS011;11740;51.168;4.112;2023-08-06T11:41:31;13.45;;;3.78;;
23142;SDS011;11740;51.168;4.112;2023-08-06T11:43:59;10.55;;;2.80;;
23142;SDS011;11740;51.168;4.112;2023-08-06T11:46:26;11.98;;;3.00;;
23142;SDS011;11740;51.168;4.112;2023-08-06T11:48:57;12.60;;;2.90;;
23142;SDS011;11740;51.168;4.112;2023-08-06T11:51:25;13.23;;;2.42;;
23142;SDS011;11740;51.168;4.112;2023-08-06T11:53:56;15.20;;;3.95;;
23142;SDS011;11740;51.168;4.112;2023-08-06T11:56:25;11.57;;;3.53;;
23142;SDS011;11740;51.168;4.112;2023-08-06T11:58:53;12.32;;;3.50;;
23142;SDS011;11740;51.168;4.112;2023-08-06T12:01:21;13.05;;;2.85;;
23142;SDS011;11740;51.168;4.112;2023-08-06T12:03:48;12.98;;;2.95;;
23142;SDS011;11740;51.168;4.112;2023-08-06T12:06:15;13.32;;;3.03;;
23142;SDS011;11740;51.168;4.112;2023-08-06T12:08:42;14.35;;;3.10;;
23142;SDS011;11740;51.168;4.112;2023-08-06T12:11:09;16.38;;;3.08;;
23142;SDS011;11740;51.168;4.112;2023-08-06T12:13:36;11.95;;;3.45;;
23142;SDS011;11740;51.168;4.112;2023-08-06T12:16:04;10.48;;;2.92;;
23142;SDS011;11740;51.168;4.112;2023-08-06T12:18:30;9.30;;;2.60;;
23142;SDS011;11740;51.168;4.112;2023-08-06T12:20:57;11.00;;;2.70;;
23142;SDS011;11740;51.168;4.112;2023-08-06T12:23:24;11.45;;;2.70;;
23142;SDS011;11740;51.168;4.112;2023-08-06T12:25:51;10.20;;;2.20;;
23142;SDS011;11740;51.168;4.112;2023-08-06T12:28:18;13.05;;;2.50;;
23142;SDS011;11740;51.168;4.112;2023-08-06T12:30:49;9.82;;;2.40;;
23142;SDS011;11740;51.168;4.112;2023-08-06T12:33:17;10.27;;;2.20;;
23142;SDS011;11740;51.168;4.112;2023-08-06T12:35:45;13.68;;;2.65;;
23142;SDS011;11740;51.168;4.112;2023-08-06T12:38:12;11.15;;;2.30;;
23142;SDS011;11740;51.168;4.112;2023-08-06T12:40:39;11.57;;;2.75;;
23142;SDS011;11740;51.168;4.112;2023-08-06T12:43:09;12.68;;;2.47;;
23142;SDS011;11740;51.168;4.112;2023-08-06T12:45:36;13.23;;;2.53;;
23142;SDS011;11740;51.168;4.112;2023-08-06T12:48:03;14.55;;;2.92;;
23142;SDS011;11740;51.168;4.112;2023-08-06T12:50:30;9.80;;;2.38;;
23142;SDS011;11740;51.168;4.112;2023-08-06T12:52:59;11.60;;;2.72;;
23142;SDS011;11740;51.168;4.112;2023-08-06T12:55:26;8.73;;;2.17;;
23142;SDS011;11740;51.168;4.112;2023-08-06T12:57:58;12.40;;;2.22;;
23142;SDS011;11740;51.168;4.112;2023-08-06T13:00:25;13.13;;;2.63;;
23142;SDS011;11740;51.168;4.112;2023-08-06T13:02:53;10.00;;;2.40;;
23142;SDS011;11740;51.168;4.112;2023-08-06T13:05:20;8.90;;;2.33;;
23142;SDS011;11740;51.168;4.112;2023-08-06T13:07:47;8.57;;;2.05;;
23142;SDS011;11740;51.168;4.112;2023-08-06T13:10:14;11.95;;;2.33;;
23142;SDS011;11740;51.168;4.112;2023-08-06T13:12:41;12.30;;;2.28;;
23142;SDS011;11740;51.168;4.112;2023-08-06T13:15:09;9.27;;;2.10;;
23142;SDS011;11740;51.168;4.112;2023-08-06T13:17:36;8.13;;;2.00;;
23142;SDS011;11740;51.168;4.112;2023-08-06T13:20:03;12.02;;;2.15;;
23142;SDS011;11740;51.168;4.112;2023-08-06T13:22:31;9.93;;;2.58;;
23142;SDS011;11740;51.168;4.112;2023-08-06T13:24:58;10.95;;;2.47;;
23142;SDS011;11740;51.168;4.112;2023-08-06T13:27:25;10.40;;;2.65;;
23142;SDS011;11740;51.168;4.112;2023-08-06T13:29:52;8.95;;;2.20;;
23142;SDS011;11740;51.168;4.112;2023-08-06T13:32:19;10.25;;;2.00;;
23142;SDS011;11740;51.168;4.112;2023-08-06T13:34:46;12.70;;;2.63;;
23142;SDS011;11740;51.168;4.112;2023-08-06T13:37:13;14.25;;;2.67;;
23142;SDS011;11740;51.168;4.112;2023-08-06T13:39:40;13.32;;;2.60;;
23142;SDS011;11740;51.168;4.112;2023-08-06T13:42:07;10.57;;;2.28;;
23142;SDS011;11740;51.168;4.112;2023-08-06T13:44:34;12.07;;;2.78;;
23142;SDS011;11740;51.168;4.112;2023-08-06T13:47:02;8.73;;;2.65;;
23142;SDS011;11740;51.168;4.112;2023-08-06T13:49:29;11.63;;;3.10;;
23142;SDS011;11740;51.168;4.112;2023-08-06T13:51:56;11.55;;;3.17;;
23142;SDS011;11740;51.168;4.112;2023-08-06T13:57:09;12.27;;;2.15;;
23142;SDS011;11740;51.168;4.112;2023-08-06T13:59:36;13.77;;;2.75;;
23142;SDS011;11740;51.168;4.112;2023-08-06T14:02:02;12.05;;;2.85;;
23142;SDS011;11740;51.168;4.112;2023-08-06T14:04:30;9.80;;;2.13;;
23142;SDS011;11740;51.168;4.112;2023-08-06T14:06:57;15.55;;;2.80;;
23142;SDS011;11740;51.168;4.112;2023-08-06T14:09:24;14.43;;;2.90;;
23142;SDS011;11740;51.168;4.112;2023-08-06T14:11:51;8.93;;;2.80;;
23142;SDS011;11740;51.168;4.112;2023-08-06T14:14:18;13.23;;;2.42;;
23142;SDS011;11740;51.168;4.112;2023-08-06T14:16:46;9.52;;;2.42;;
23142;SDS011;11740;51.168;4.112;2023-08-06T14:19:13;10.23;;;2.35;;
23142;SDS011;11740;51.168;4.112;2023-08-06T14:21:40;8.57;;;2.30;;
23142;SDS011;11740;51.168;4.112;2023-08-06T14:24:07;14.00;;;2.45;;
23142;SDS011;11740;51.168;4.112;2023-08-06T14:26:33;6.82;;;1.52;;
23142;SDS011;11740;51.168;4.112;2023-08-06T14:29:01;7.85;;;1.75;;
23142;SDS011;11740;51.168;4.112;2023-08-06T14:31:28;7.78;;;1.77;;
23142;SDS011;11740;51.168;4.112;2023-08-06T14:33:55;10.13;;;2.00;;
23142;SDS011;11740;51.168;4.112;2023-08-06T14:36:22;6.90;;;1.52;;
23142;SDS011;11740;51.168;4.112;2023-08-06T14:38:49;7.25;;;1.70;;
23142;SDS011;11740;51.168;4.112;2023-08-06T14:41:25;6.43;;;1.77;;
23142;SDS011;11740;51.168;4.112;2023-08-06T14:43:53;7.93;;;1.88;;
23142;SDS011;11740;51.168;4.112;2023-08-06T14:46:20;10.38;;;3.00;;
23142;SDS011;11740;51.168;4.112;2023-08-06T14:48:47;11.20;;;3.05;;
23142;SDS011;11740;51.168;4.112;2023-08-06T14:51:15;12.65;;;3.30;;
23142;SDS011;11740;51.168;4.112;2023-08-06T14:53:45;12.20;;;2.80;;
23142;SDS011;11740;51.168;4.112;2023-08-06T14:56:13;10.98;;;2.20;;
23142;SDS011;11740;51.168;4.112;2023-08-06T14:58:40;10.70;;;2.30;;
23142;SDS011;11740;51.168;4.112;2023-08-06T15:01:08;16.15;;;2.80;;
23142;SDS011;11740;51.168;4.112;2023-08-06T15:03:35;11.27;;;2.33;;
23142;SDS011;11740;51.168;4.112;2023-08-06T15:06:03;8.63;;;1.77;;
23142;SDS011;11740;51.168;4.112;2023-08-06T15:08:30;11.95;;;2.30;;